Time;durP1;ratioP1;P1;durP2;ratioP2;P2;SDS_P1;SDS_P2;PMS_P1;PMS_P2;Temp;Humidity;BMP_temperature;BMP_pressure;BME280_temperature;BME280_humidity;BME280_pressure;Samples;Min_cycle;Max_cycle;Signal;HPM_P1;HPM_P2
2022/11/09 00:01:36;;;;;;;;;;;9.20;99.90;;;;;;1888405;76;20143;-69
2022/11/09 00:04:03;;;;;;;;;;;9.30;99.90;;;;;;1888421;76;20127;-68
2022/11/09 00:06:30;;;;;;;;;;;9.30;99.90;;;;;;1888360;76;20120;-69
2022/11/09 00:08:57;;;;;;;;;;;9.30;99.90;;;;;;1888267;76;20128;-69
2022/11/09 00:11:23;;;;;;;;;;;9.20;99.90;;;;;;1888351;76;20339;-69
2022/11/09 00:13:50;;;;;;;;;;;9.20;99.90;;;;;;1888496;76;20146;-70
2022/11/09 00:16:18;;;;;;;;;;;9.20;99.90;;;;;;1888287;76;20108;-69
2022/11/09 00:18:47;;;;;;;;;;;9.30;99.90;;;;;;1888390;76;20252;-68
2022/11/09 00:21:15;;;;;;;;;;;9.30;99.90;;;;;;1888272;76;20383;-70
2022/11/09 00:23:42;;;;;;;;;;;9.30;99.90;;;;;;1888362;76;20326;-70
2022/11/09 00:26:09;;;;;;;;;;;9.20;99.90;;;;;;1888425;76;20127;-69
2022/11/09 00:28:36;;;;;;;;;;;9.20;99.90;;;;;;1888400;76;20120;-70
2022/11/09 00:31:03;;;;;;;;;;;9.20;99.90;;;;;;1888521;76;20105;-69
2022/11/09 00:33:30;;;;;;;;;;;9.10;99.90;;;;;;1888561;76;20116;-70
2022/11/09 00:35:56;;;;;;;;;;;9.20;99.90;;;;;;1888508;74;20371;-71
2022/11/09 00:38:23;;;;;;;;;;;9.30;99.90;;;;;;1888424;76;20119;-69
2022/11/09 00:40:50;;;;;;;;;;;9.20;99.90;;;;;;1888637;76;20319;-70
2022/11/09 00:43:17;;;;;;;;;;;9.20;99.90;;;;;;1888537;76;20120;-70
2022/11/09 00:45:46;;;;;;;;;;;9.20;99.90;;;;;;1888496;75;20151;-69
2022/11/09 00:48:12;;;;;;;;;;;9.20;99.90;;;;;;1888580;76;20370;-69
2022/11/09 00:50:39;;;;;;;;;;;9.20;99.90;;;;;;1888403;76;20132;-69
2022/11/09 00:53:06;;;;;;;;;;;9.10;99.90;;;;;;1888447;76;20340;-70
2022/11/09 00:55:33;;;;;;;;;;;9.00;99.90;;;;;;1888431;76;20116;-69
2022/11/09 00:57:59;;;;;;;;;;;9.10;99.90;;;;;;1888497;76;20132;-70
2022/11/09 01:00:26;;;;;;;;;;;9.10;99.90;;;;;;1888637;76;20200;-70
2022/11/09 01:02:53;;;;;;;;;;;9.10;99.90;;;;;;1888281;75;20131;-70
2022/11/09 01:05:19;;;;;;;;;;;9.00;99.90;;;;;;1888031;76;20120;-70
2022/11/09 01:07:46;;;;;;;;;;;9.10;99.90;;;;;;1887656;74;20166;-70
2022/11/09 01:10:13;;;;;;;;;;;9.10;99.90;;;;;;1888384;76;20116;-71
2022/11/09 01:12:39;;;;;;;;;;;9.20;99.90;;;;;;1888369;75;20128;-70
2022/11/09 01:15:06;;;;;;;;;;;9.00;99.90;;;;;;1887135;74;20120;-70
2022/11/09 01:17:33;;;;;;;;;;;9.10;99.90;;;;;;1888409;76;20158;-70
2022/11/09 01:20:00;;;;;;;;;;;9.00;99.90;;;;;;1888364;76;20154;-69
2022/11/09 01:22:26;;;;;;;;;;;9.00;99.90;;;;;;1888432;76;20120;-71
2022/11/09 01:24:53;;;;;;;;;;;9.10;99.90;;;;;;1888406;76;20162;-70
2022/11/09 01:27:20;;;;;;;;;;;9.00;99.90;;;;;;1886526;75;20320;-70
2022/11/09 01:29:46;;;;;;;;;;;9.20;99.90;;;;;;1885577;75;20154;-70
2022/11/09 01:32:13;;;;;;;;;;;9.20;99.90;;;;;;1889348;75;20469;-70
2022/11/09 01:34:40;;;;;;;;;;;9.20;99.90;;;;;;1886487;75;20173;-70
2022/11/09 01:37:07;;;;;;;;;;;9.20;99.90;;;;;;1885999;75;20124;-69
2022/11/09 01:39:33;;;;;;;;;;;9.10;99.90;;;;;;1887986;75;20123;-70
2022/11/09 01:42:00;;;;;;;;;;;9.10;99.90;;;;;;1883279;75;20119;-70
2022/11/09 01:44:27;;;;;;;;;;;9.20;99.90;;;;;;1881879;76;20180;-70
2022/11/09 01:46:57;;;;;;;;;;;9.20;99.90;;;;;;1888760;75;20119;-70
2022/11/09 01:49:42;;;;;;;;;;;9.10;99.90;;;;;;1885233;75;20359;-70
2022/11/09 01:52:10;;;;;;;;;;;9.10;99.90;;;;;;1891077;75;20154;-69
2022/11/09 01:54:39;;;;;;;;;;;9.20;99.90;;;;;;1890380;74;20135;-69
2022/11/09 01:57:07;;;;;;;;;;;9.10;99.90;;;;;;1883286;74;20159;-70
2022/11/09 01:59:35;;;;;;;;;;;9.10;99.90;;;;;;1887675;75;20132;-70
2022/11/09 02:02:02;;;;;;;;;;;9.10;99.90;;;;;;1884015;75;20176;-69
2022/11/09 02:04:30;;;;;;;;;;;9.20;99.90;;;;;;1888352;75;20172;-69
2022/11/09 02:06:57;;;;;;;;;;;9.20;99.90;;;;;;1891685;75;20120;-70
2022/11/09 02:09:28;;;;;;;;;;;9.00;99.90;;;;;;1894514;75;20127;-70
2022/11/09 02:11:55;;;;;;;;;;;8.90;99.90;;;;;;1886637;75;20159;-69
2022/11/09 02:14:22;;;;;;;;;;;8.90;99.90;;;;;;1884032;75;20121;-70
2022/11/09 02:16:48;;;;;;;;;;;9.00;99.90;;;;;;1884819;75;20124;-70
2022/11/09 02:19:15;;;;;;;;;;;9.00;99.90;;;;;;1884538;75;20345;-70
2022/11/09 02:21:42;;;;;;;;;;;9.10;99.90;;;;;;1885270;75;20124;-70
2022/11/09 02:24:09;;;;;;;;;;;9.30;99.90;;;;;;1885841;75;20382;-70
2022/11/09 02:26:37;;;;;;;;;;;9.40;99.90;;;;;;1884399;75;20229;-70
2022/11/09 02:29:05;;;;;;;;;;;9.30;99.90;;;;;;1886882;75;20189;-70
2022/11/09 02:31:33;;;;;;;;;;;9.40;99.90;;;;;;1886127;75;20189;-70
2022/11/09 02:34:01;;;;;;;;;;;9.50;99.90;;;;;;1888407;75;20112;-69
2022/11/09 02:36:28;;;;;;;;;;;9.50;99.90;;;;;;1890684;74;20124;-69
2022/11/09 02:38:54;;;;;;;;;;;9.50;99.90;;;;;;1885519;74;20162;-69
2022/11/09 02:41:21;;;;;;;;;;;9.40;99.90;;;;;;1890155;75;20127;-70
2022/11/09 02:43:49;;;;;;;;;;;9.50;99.90;;;;;;1885480;75;20320;-69
2022/11/09 02:46:23;;;;;;;;;;;9.50;99.90;;;;;;1884351;75;20123;-70
2022/11/09 02:48:50;;;;;;;;;;;9.30;99.90;;;;;;1886193;75;20204;-70
2022/11/09 02:51:16;;;;;;;;;;;9.40;99.90;;;;;;1885148;75;20355;-70
2022/11/09 02:53:43;;;;;;;;;;;9.30;99.90;;;;;;1882425;74;20224;-70
2022/11/09 02:56:10;;;;;;;;;;;9.40;99.90;;;;;;1885294;75;20368;-69
2022/11/09 02:58:36;;;;;;;;;;;9.50;99.90;;;;;;1885271;75;20154;-70
2022/11/09 03:01:03;;;;;;;;;;;9.60;99.90;;;;;;1884045;75;20312;-70
2022/11/09 03:03:30;;;;;;;;;;;9.70;99.90;;;;;;1887679;75;20155;-70
2022/11/09 03:05:57;;;;;;;;;;;9.60;99.90;;;;;;1888327;74;20367;-69
2022/11/09 03:08:23;;;;;;;;;;;9.60;99.90;;;;;;1886685;74;20120;-69
2022/11/09 03:10:50;;;;;;;;;;;9.60;99.90;;;;;;1886833;75;20336;-70
2022/11/09 03:13:17;;;;;;;;;;;9.50;99.90;;;;;;1888340;74;20199;-69
2022/11/09 03:15:43;;;;;;;;;;;9.70;99.90;;;;;;1885267;75;20367;-70
2022/11/09 03:18:10;;;;;;;;;;;9.80;99.90;;;;;;1885674;76;20132;-69
2022/11/09 03:20:37;;;;;;;;;;;9.60;99.90;;;;;;1891707;75;20131;-70
2022/11/09 03:23:03;;;;;;;;;;;9.70;99.90;;;;;;1888348;75;20151;-69
2022/11/09 03:25:30;;;;;;;;;;;9.70;99.90;;;;;;1889042;75;20189;-70
2022/11/09 03:28:00;;;;;;;;;;;9.70;99.90;;;;;;1885331;75;20152;-70
2022/11/09 03:30:26;;;;;;;;;;;9.60;99.90;;;;;;1886048;74;20112;-70
2022/11/09 03:32:57;;;;;;;;;;;9.70;99.90;;;;;;1883143;75;20112;-69
2022/11/09 03:35:24;;;;;;;;;;;9.80;99.90;;;;;;1883317;75;20175;-69
2022/11/09 03:37:51;;;;;;;;;;;9.80;99.90;;;;;;1884094;75;20363;-70
2022/11/09 03:40:18;;;;;;;;;;;9.80;99.90;;;;;;1885268;76;20166;-70
2022/11/09 03:42:45;;;;;;;;;;;9.70;99.90;;;;;;1889648;76;20185;-69
2022/11/09 03:45:12;;;;;;;;;;;9.80;99.90;;;;;;1878248;74;20124;-70
2022/11/09 03:47:42;;;;;;;;;;;9.80;99.90;;;;;;1891082;75;20315;-69
2022/11/09 03:50:09;;;;;;;;;;;9.90;99.90;;;;;;1883170;75;20175;-69
2022/11/09 03:52:36;;;;;;;;;;;9.80;99.90;;;;;;1881605;76;20171;-70
2022/11/09 03:55:03;;;;;;;;;;;9.90;99.90;;;;;;1881863;75;20355;-69
2022/11/09 03:57:29;;;;;;;;;;;9.80;99.90;;;;;;1881812;75;20140;-69
2022/11/09 03:59:56;;;;;;;;;;;9.80;99.90;;;;;;1888112;74;20132;-70
2022/11/09 04:02:23;;;;;;;;;;;9.80;99.90;;;;;;1886808;75;20154;-70
2022/11/09 04:04:49;;;;;;;;;;;9.80;99.90;;;;;;1885477;75;20147;-69
2022/11/09 04:07:16;;;;;;;;;;;9.80;99.90;;;;;;1883534;74;20219;-70
2022/11/09 04:09:43;;;;;;;;;;;9.70;99.90;;;;;;1892137;75;20127;-70
2022/11/09 04:12:10;;;;;;;;;;;9.70;99.90;;;;;;1890523;75;20116;-70
2022/11/09 04:14:36;;;;;;;;;;;9.60;99.90;;;;;;1883685;74;20198;-69
2022/11/09 04:17:03;;;;;;;;;;;9.60;99.90;;;;;;1883487;74;20362;-70
2022/11/09 04:19:49;;;;;;;;;;;9.70;99.90;;;;;;1884622;75;20120;-69
2022/11/09 04:22:16;;;;;;;;;;;9.50;99.90;;;;;;1904561;74;20172;-70
2022/11/09 04:24:42;;;;;;;;;;;9.40;99.90;;;;;;1907985;74;20138;-71
2022/11/09 04:27:09;;;;;;;;;;;9.40;99.90;;;;;;1897942;74;20125;-69
2022/11/09 04:29:36;;;;;;;;;;;9.40;99.90;;;;;;1912897;74;20130;-69
2022/11/09 04:32:03;;;;;;;;;;;9.50;99.90;;;;;;1892936;75;20126;-70
2022/11/09 04:34:29;;;;;;;;;;;9.60;99.90;;;;;;1886538;75;20113;-66
2022/11/09 04:36:56;;;;;;;;;;;9.50;99.90;;;;;;1913205;74;20125;-65
2022/11/09 04:39:23;;;;;;;;;;;9.50;99.90;;;;;;1912561;74;20121;-68
2022/11/09 04:41:49;;;;;;;;;;;9.50;99.90;;;;;;1919550;74;20108;-69
2022/11/09 04:44:16;;;;;;;;;;;9.50;99.90;;;;;;1903843;74;20125;-70
2022/11/09 04:46:43;;;;;;;;;;;9.60;99.90;;;;;;1902552;73;20113;-70
2022/11/09 04:49:09;;;;;;;;;;;9.60;99.90;;;;;;1902726;74;20244;-70
2022/11/09 04:51:36;;;;;;;;;;;9.70;99.90;;;;;;1908140;74;20121;-70
2022/11/09 04:54:03;;;;;;;;;;;9.80;99.90;;;;;;1924027;74;20149;-69
2022/11/09 04:56:29;;;;;;;;;;;9.80;99.90;;;;;;1913215;75;20099;-70
2022/11/09 04:58:56;;;;;;;;;;;9.70;99.90;;;;;;1913188;74;20326;-70
2022/11/09 05:01:23;;;;;;;;;;;9.70;99.90;;;;;;1913397;75;20118;-68
2022/11/09 05:03:50;;;;;;;;;;;9.80;99.90;;;;;;1908722;74;20384;-70
2022/11/09 05:06:32;;;;;;;;;;;9.80;99.90;;;;;;1884899;75;20106;-70
2022/11/09 05:09:00;;;;;;;;;;;9.70;99.90;;;;;;1914463;74;20122;-71
2022/11/09 05:11:27;;;;;;;;;;;9.70;99.90;;;;;;1820403;77;20114;-69
2022/11/09 05:13:53;;;;;;;;;;;9.70;99.90;;;;;;1866957;76;20134;-70
2022/11/09 05:16:21;;;;;;;;;;;9.70;99.90;;;;;;1916579;75;20173;-69
2022/11/09 05:18:48;;;;;;;;;;;9.70;99.90;;;;;;1913365;74;20099;-71
2022/11/09 05:21:15;;;;;;;;;;;9.70;99.90;;;;;;1910167;74;20116;-72
2022/11/09 05:24:01;;;;;;;;;;;9.70;99.90;;;;;;1894769;75;20130;-72
2022/11/09 05:26:35;;;;;;;;;;;9.70;99.90;;;;;;1918862;74;20357;-70
2022/11/09 05:29:03;;;;;;;;;;;9.80;99.90;;;;;;1903953;74;20362;-70
2022/11/09 05:31:30;;;;;;;;;;;9.80;99.90;;;;;;1894844;74;20126;-71
2022/11/09 05:33:58;;;;;;;;;;;9.90;99.90;;;;;;1906622;75;20110;-72
2022/11/09 05:36:25;;;;;;;;;;;9.90;99.90;;;;;;1927473;74;20133;-70
2022/11/09 05:38:52;;;;;;;;;;;10.00;99.90;;;;;;1929672;73;20384;-71
2022/11/09 05:41:18;;;;;;;;;;;9.90;99.90;;;;;;1903666;74;20156;-71
2022/11/09 05:43:45;;;;;;;;;;;10.00;99.90;;;;;;1887296;75;20191;-70
2022/11/09 05:46:12;;;;;;;;;;;10.10;99.90;;;;;;1916299;74;20157;-71
2022/11/09 05:48:39;;;;;;;;;;;10.00;99.90;;;;;;1884756;75;20145;-71
2022/11/09 05:51:07;;;;;;;;;;;10.00;99.90;;;;;;1905664;74;20222;-70
2022/11/09 05:53:33;;;;;;;;;;;10.10;99.90;;;;;;1914073;74;20368;-68
2022/11/09 05:56:02;;;;;;;;;;;10.10;99.90;;;;;;1922685;73;20127;-70
2022/11/09 05:58:29;;;;;;;;;;;10.00;99.90;;;;;;1894695;75;20113;-70
2022/11/09 06:00:56;;;;;;;;;;;10.00;99.90;;;;;;1908678;74;20171;-70
2022/11/09 06:03:22;;;;;;;;;;;10.10;99.90;;;;;;1897142;74;20157;-70
2022/11/09 06:05:49;;;;;;;;;;;10.10;99.90;;;;;;1909556;74;20213;-70
2022/11/09 06:08:16;;;;;;;;;;;10.10;99.90;;;;;;1928271;74;20184;-72
2022/11/09 06:10:43;;;;;;;;;;;10.00;99.90;;;;;;1903190;74;20165;-69
2022/11/09 06:13:09;;;;;;;;;;;10.10;99.90;;;;;;1913160;75;20117;-69
2022/11/09 06:15:36;;;;;;;;;;;10.00;99.90;;;;;;1907978;74;20122;-69
2022/11/09 06:18:03;;;;;;;;;;;10.00;99.90;;;;;;1913204;75;20189;-69
2022/11/09 06:20:31;;;;;;;;;;;10.00;99.90;;;;;;1913068;73;20156;-69
2022/11/09 06:22:59;;;;;;;;;;;10.10;99.90;;;;;;1913194;75;20152;-69
2022/11/09 06:25:25;;;;;;;;;;;10.10;99.90;;;;;;1907886;74;20248;-70
2022/11/09 06:27:56;;;;;;;;;;;10.10;99.90;;;;;;1899379;74;20157;-70
2022/11/09 06:30:23;;;;;;;;;;;10.00;99.90;;;;;;1910513;74;20180;-68
2022/11/09 06:32:49;;;;;;;;;;;10.00;99.90;;;;;;1896105;74;20194;-69
2022/11/09 06:35:16;;;;;;;;;;;9.90;99.90;;;;;;1908404;75;20122;-69
2022/11/09 06:37:43;;;;;;;;;;;9.80;99.90;;;;;;1899176;74;20353;-71
2022/11/09 06:40:11;;;;;;;;;;;10.00;99.90;;;;;;1915636;74;20152;-69
2022/11/09 06:42:38;;;;;;;;;;;10.00;99.90;;;;;;1901492;73;20125;-68
2022/11/09 06:45:04;;;;;;;;;;;10.00;99.90;;;;;;1900484;75;20117;-68
2022/11/09 06:47:31;;;;;;;;;;;10.10;99.90;;;;;;1916603;74;20339;-68
2022/11/09 06:49:58;;;;;;;;;;;10.10;99.90;;;;;;1913185;74;20176;-69
2022/11/09 06:52:25;;;;;;;;;;;10.10;99.90;;;;;;1913273;75;20122;-68
2022/11/09 06:54:51;;;;;;;;;;;10.10;99.90;;;;;;1913048;74;20110;-69
2022/11/09 06:57:18;;;;;;;;;;;10.10;99.90;;;;;;1901509;73;20330;-68
2022/11/09 06:59:45;;;;;;;;;;;10.00;99.90;;;;;;1897383;74;20106;-69
2022/11/09 07:02:13;;;;;;;;;;;10.10;99.90;;;;;;1900807;73;20349;-69
2022/11/09 07:04:40;;;;;;;;;;;10.10;99.90;;;;;;1913373;73;20117;-70
2022/11/09 07:07:07;;;;;;;;;;;10.20;99.90;;;;;;1900900;74;20231;-69
2022/11/09 07:09:33;;;;;;;;;;;10.20;99.90;;;;;;1891831;74;20341;-68
2022/11/09 07:12:00;;;;;;;;;;;10.20;99.90;;;;;;1908752;74;20121;-69
2022/11/09 07:14:27;;;;;;;;;;;10.10;99.90;;;;;;1897098;74;20199;-69
2022/11/09 07:16:54;;;;;;;;;;;10.20;99.90;;;;;;1904818;74;20308;-69
2022/11/09 07:19:21;;;;;;;;;;;10.10;99.90;;;;;;1913672;74;20117;-69
2022/11/09 07:21:48;;;;;;;;;;;10.10;99.90;;;;;;1913037;74;20156;-69
2022/11/09 07:24:14;;;;;;;;;;;10.10;99.90;;;;;;1894476;74;20111;-70
2022/11/09 07:26:41;;;;;;;;;;;10.20;99.90;;;;;;1904802;73;20329;-69
2022/11/09 07:29:08;;;;;;;;;;;10.30;99.90;;;;;;1917108;74;20117;-69
2022/11/09 07:31:34;;;;;;;;;;;10.20;99.90;;;;;;1916936;74;20341;-69
2022/11/09 07:34:03;;;;;;;;;;;10.20;99.90;;;;;;1912834;74;20127;-70
2022/11/09 07:36:30;;;;;;;;;;;10.40;99.90;;;;;;1911626;74;20114;-70
2022/11/09 07:38:57;;;;;;;;;;;10.30;99.90;;;;;;1904490;73;20142;-71
2022/11/09 07:41:24;;;;;;;;;;;10.30;99.90;;;;;;1903249;74;20109;-72
2022/11/09 07:43:51;;;;;;;;;;;10.30;99.90;;;;;;1907784;75;20118;-69
2022/11/09 07:46:22;;;;;;;;;;;10.40;99.90;;;;;;1903966;74;20224;-69
2022/11/09 07:48:48;;;;;;;;;;;10.50;99.90;;;;;;1906773;74;20122;-71
2022/11/09 07:51:15;;;;;;;;;;;10.60;99.90;;;;;;1893425;73;20121;-71
2022/11/09 07:53:42;;;;;;;;;;;10.60;99.90;;;;;;1896059;74;20125;-70
2022/11/09 07:56:08;;;;;;;;;;;10.70;99.90;;;;;;1904461;75;20114;-70
2022/11/09 07:58:35;;;;;;;;;;;10.80;99.90;;;;;;1913064;75;20224;-70
2022/11/09 08:01:04;;;;;;;;;;;10.90;99.90;;;;;;1896872;74;20412;-69
2022/11/09 08:03:30;;;;;;;;;;;10.90;99.90;;;;;;1896722;74;20180;-69
2022/11/09 08:05:57;;;;;;;;;;;10.90;99.90;;;;;;1919872;74;20365;-68
2022/11/09 08:08:24;;;;;;;;;;;10.90;99.90;;;;;;1912523;74;20188;-68
2022/11/09 08:10:51;;;;;;;;;;;10.90;99.90;;;;;;1923519;73;20125;-70
2022/11/09 08:13:19;;;;;;;;;;;10.90;99.90;;;;;;1904491;74;20118;-68
2022/11/09 08:15:46;;;;;;;;;;;10.80;99.90;;;;;;1925101;73;20145;-68
2022/11/09 08:18:13;;;;;;;;;;;10.90;99.90;;;;;;1928751;74;20168;-69
2022/11/09 08:20:40;;;;;;;;;;;10.80;99.90;;;;;;1916298;74;20118;-69
2022/11/09 08:23:07;;;;;;;;;;;10.80;99.90;;;;;;1913192;75;20311;-69
2022/11/09 08:25:34;;;;;;;;;;;11.00;99.90;;;;;;1892327;74;20152;-69
2022/11/09 08:28:00;;;;;;;;;;;10.90;99.90;;;;;;1882271;76;20156;-69
2022/11/09 08:30:27;;;;;;;;;;;11.00;99.90;;;;;;1902615;75;20126;-68
2022/11/09 08:32:54;;;;;;;;;;;11.00;99.90;;;;;;1907926;74;20150;-68
2022/11/09 08:35:21;;;;;;;;;;;11.00;99.90;;;;;;1913100;73;20126;-69
2022/11/09 08:37:48;;;;;;;;;;;11.00;99.90;;;;;;1893032;74;20156;-69
2022/11/09 08:40:15;;;;;;;;;;;11.10;99.90;;;;;;1908234;74;20163;-69
2022/11/09 08:42:42;;;;;;;;;;;11.30;99.90;;;;;;1912878;74;20297;-69
2022/11/09 08:45:09;;;;;;;;;;;11.40;99.90;;;;;;1906991;74;20395;-69
2022/11/09 08:47:37;;;;;;;;;;;11.40;99.90;;;;;;1884036;74;20121;-69
2022/11/09 08:50:04;;;;;;;;;;;11.40;99.90;;;;;;1884564;75;20117;-68
2022/11/09 08:52:32;;;;;;;;;;;11.40;99.90;;;;;;1904036;74;20121;-70
2022/11/09 08:54:59;;;;;;;;;;;11.40;99.90;;;;;;1898243;73;20218;-68
2022/11/09 08:57:26;;;;;;;;;;;11.70;99.90;;;;;;1909397;73;20352;-70
2022/11/09 08:59:52;;;;;;;;;;;11.80;99.90;;;;;;1906262;73;20165;-69
2022/11/09 09:02:19;;;;;;;;;;;11.70;99.90;;;;;;1921798;74;20168;-70
2022/11/09 09:04:46;;;;;;;;;;;11.80;99.90;;;;;;1905127;73;20340;-69
2022/11/09 09:07:13;;;;;;;;;;;11.90;99.90;;;;;;1902231;75;20145;-69
2022/11/09 09:09:39;;;;;;;;;;;11.80;99.90;;;;;;1922674;75;20134;-69
2022/11/09 09:12:06;;;;;;;;;;;12.00;99.90;;;;;;1919725;73;20123;-69
2022/11/09 09:14:33;;;;;;;;;;;12.00;99.90;;;;;;1909997;74;20161;-69
2022/11/09 09:17:00;;;;;;;;;;;12.10;99.90;;;;;;1910496;75;20346;-69
2022/11/09 09:19:27;;;;;;;;;;;12.00;99.90;;;;;;1896601;74;20107;-71
2022/11/09 09:21:53;;;;;;;;;;;12.00;99.90;;;;;;1909261;74;20328;-71
2022/11/09 09:24:20;;;;;;;;;;;12.00;99.90;;;;;;1908044;74;20239;-71
2022/11/09 09:26:47;;;;;;;;;;;12.00;99.90;;;;;;1926822;74;20117;-72
2022/11/09 09:29:14;;;;;;;;;;;12.00;99.90;;;;;;1911458;73;20180;-71
2022/11/09 09:31:40;;;;;;;;;;;12.00;99.90;;;;;;1928666;74;20144;-71
2022/11/09 09:34:07;;;;;;;;;;;12.00;99.90;;;;;;1913332;74;20102;-70
2022/11/09 09:36:36;;;;;;;;;;;12.00;99.90;;;;;;1895528;74;20353;-71
2022/11/09 09:39:03;;;;;;;;;;;12.10;99.90;;;;;;1897204;74;20115;-70
2022/11/09 09:41:37;;;;;;;;;;;12.10;99.90;;;;;;1899957;73;20199;-70
2022/11/09 09:44:15;;;;;;;;;;;12.00;99.90;;;;;;1921596;75;20168;-70
2022/11/09 09:46:43;;;;;;;;;;;12.10;99.90;;;;;;1913311;74;20122;-69
2022/11/09 09:49:27;;;;;;;;;;;12.20;99.90;;;;;;1911948;74;20103;-70
2022/11/09 09:51:55;;;;;;;;;;;12.40;99.90;;;;;;1920146;74;20122;-70
2022/11/09 09:54:26;;;;;;;;;;;12.50;99.90;;;;;;1886065;74;20126;-70
2022/11/09 09:56:53;;;;;;;;;;;12.60;99.90;;;;;;1905104;74;20118;-68
2022/11/09 09:59:23;;;;;;;;;;;12.60;99.90;;;;;;1904507;74;20118;-69
2022/11/09 10:01:50;;;;;;;;;;;12.60;99.90;;;;;;1900600;74;20118;-68
2022/11/09 10:04:18;;;;;;;;;;;12.80;99.90;;;;;;1902698;73;20121;-70
2022/11/09 10:07:04;;;;;;;;;;;13.00;99.90;;;;;;1912773;73;20222;-70
2022/11/09 10:09:33;;;;;;;;;;;13.00;99.90;;;;;;1907525;74;20129;-71
2022/11/09 10:12:10;;;;;;;;;;;13.10;99.90;;;;;;1888119;73;20130;-70
2022/11/09 10:14:45;;;;;;;;;;;13.20;99.90;;;;;;1898066;74;20156;-70
2022/11/09 10:17:22;;;;;;;;;;;13.50;99.90;;;;;;1907340;74;20148;-71
2022/11/09 10:20:07;;;;;;;;;;;13.50;99.90;;;;;;1887739;74;20333;-70
2022/11/09 10:22:41;;;;;;;;;;;13.50;99.90;;;;;;1883377;75;20322;-71
2022/11/09 10:25:15;;;;;;;;;;;13.80;99.90;;;;;;1903931;74;20343;-71
2022/11/09 10:27:43;;;;;;;;;;;13.90;99.90;;;;;;1913400;75;20110;-69
2022/11/09 10:30:11;;;;;;;;;;;13.90;99.90;;;;;;1911966;75;20202;-70
2022/11/09 10:32:38;;;;;;;;;;;13.90;99.90;;;;;;1913483;74;20118;-69
2022/11/09 10:35:15;;;;;;;;;;;14.10;99.90;;;;;;1896988;73;20207;-70
2022/11/09 10:37:45;;;;;;;;;;;13.90;99.90;;;;;;1898932;74;20121;-69
2022/11/09 10:40:15;;;;;;;;;;;14.10;99.90;;;;;;1916198;73;20197;-69
2022/11/09 10:42:43;;;;;;;;;;;14.30;99.90;;;;;;1903553;74;20226;-69
2022/11/09 10:45:14;;;;;;;;;;;14.30;99.90;;;;;;1852550;77;20360;-71
2022/11/09 10:47:47;;;;;;;;;;;14.20;99.90;;;;;;1893731;75;20153;-69
2022/11/09 10:50:19;;;;;;;;;;;14.10;99.90;;;;;;1907428;74;20107;-71
2022/11/09 10:52:45;;;;;;;;;;;14.20;99.90;;;;;;1906622;74;20325;-71
2022/11/09 10:55:22;;;;;;;;;;;14.30;99.90;;;;;;1898057;75;20148;-69
2022/11/09 10:57:59;;;;;;;;;;;14.60;99.90;;;;;;1910021;74;20110;-70
2022/11/09 11:00:40;;;;;;;;;;;14.40;99.90;;;;;;1820777;77;20127;-71
2022/11/09 11:03:11;;;;;;;;;;;14.60;99.90;;;;;;1868635;76;20199;-69
2022/11/09 11:05:38;;;;;;;;;;;14.70;99.90;;;;;;1847021;77;20353;-69
2022/11/09 11:08:07;;;;;;;;;;;14.80;99.90;;;;;;1850553;78;20142;-69
2022/11/09 11:10:33;;;;;;;;;;;15.10;99.90;;;;;;1842546;77;20219;-71
2022/11/09 11:13:02;;;;;;;;;;;15.00;99.90;;;;;;1846391;77;20177;-69
2022/11/09 11:15:29;;;;;;;;;;;15.10;99.90;;;;;;1881193;76;20148;-70
2022/11/09 11:18:03;;;;;;;;;;;15.00;99.90;;;;;;1841375;77;20127;-70
2022/11/09 11:20:34;;;;;;;;;;;14.90;99.90;;;;;;1854907;77;20157;-71
2022/11/09 11:23:08;;;;;;;;;;;14.90;99.90;;;;;;1879179;76;20171;-69
2022/11/09 11:25:36;;;;;;;;;;;15.10;99.90;;;;;;1914877;75;20122;-71
2022/11/09 11:28:04;;;;;;;;;;;15.30;99.90;;;;;;1908651;74;20126;-70
2022/11/09 11:30:34;;;;;;;;;;;15.40;99.90;;;;;;1892022;75;20121;-70
2022/11/09 11:33:01;;;;;;;;;;;15.30;99.90;;;;;;1913375;74;20146;-69
2022/11/09 11:35:46;;;;;;;;;;;15.20;99.90;;;;;;1909158;74;20233;-70
2022/11/09 11:38:18;;;;;;;;;;;15.20;99.90;;;;;;1917937;75;20142;-69
2022/11/09 11:41:03;;;;;;;;;;;15.50;99.90;;;;;;1908767;73;20118;-70
2022/11/09 11:43:46;;;;;;;;;;;15.10;99.90;;;;;;1914919;75;20114;-70
2022/11/09 11:46:17;;;;;;;;;;;15.00;99.90;;;;;;1910018;74;20134;-70
2022/11/09 11:48:57;;;;;;;;;;;15.10;99.90;;;;;;1926291;74;20160;-71
2022/11/09 11:51:26;;;;;;;;;;;15.10;99.90;;;;;;1875317;74;20168;-70
2022/11/09 11:53:57;;;;;;;;;;;15.00;99.90;;;;;;1929583;74;20122;-69
2022/11/09 11:56:26;;;;;;;;;;;15.20;99.90;;;;;;1905463;74;20129;-70
2022/11/09 11:58:55;;;;;;;;;;;15.00;99.90;;;;;;1922946;75;20133;-70
2022/11/09 12:01:23;;;;;;;;;;;15.30;99.90;;;;;;1909310;73;20126;-69
2022/11/09 12:03:54;;;;;;;;;;;15.20;99.90;;;;;;1908304;74;20117;-69
2022/11/09 12:06:32;;;;;;;;;;;15.30;99.90;;;;;;1913283;73;20119;-69
2022/11/09 12:09:03;;;;;;;;;;;15.30;99.90;;;;;;1916290;74;20122;-70
2022/11/09 12:11:48;;;;;;;;;;;15.20;99.90;;;;;;1912560;74;20133;-69
2022/11/09 12:14:19;;;;;;;;;;;15.10;99.90;;;;;;1906893;73;20114;-69
2022/11/09 12:16:51;;;;;;;;;;;15.10;99.90;;;;;;1909178;74;20318;-69
2022/11/09 12:19:23;;;;;;;;;;;15.00;99.90;;;;;;1837140;77;20123;-69
2022/11/09 12:22:00;;;;;;;;;;;15.20;99.90;;;;;;1898500;74;20130;-69
2022/11/09 12:24:41;;;;;;;;;;;15.50;99.90;;;;;;1876487;76;20298;-69
2022/11/09 12:27:09;;;;;;;;;;;15.30;99.90;;;;;;1854121;76;20518;-70
2022/11/09 12:29:46;;;;;;;;;;;15.60;99.90;;;;;;1919363;75;20109;-70
2022/11/09 12:32:31;;;;;;;;;;;15.60;99.90;;;;;;1904247;74;20126;-70
2022/11/09 12:35:16;;;;;;;;;;;15.40;99.90;;;;;;1915272;75;20103;-68
2022/11/09 12:37:44;;;;;;;;;;;15.40;99.90;;;;;;1916857;73;20165;-70
2022/11/09 12:40:15;;;;;;;;;;;15.30;99.90;;;;;;1902059;74;20146;-69
2022/11/09 12:42:46;;;;;;;;;;;15.30;99.90;;;;;;1892534;75;20325;-69
2022/11/09 12:45:24;;;;;;;;;;;15.20;99.90;;;;;;1903211;74;20149;-68
2022/11/09 12:47:53;;;;;;;;;;;15.30;99.90;;;;;;1914180;74;20210;-68
2022/11/09 12:50:19;;;;;;;;;;;15.50;99.90;;;;;;1909655;73;20243;-67
2022/11/09 12:52:48;;;;;;;;;;;15.70;99.90;;;;;;1914078;75;20152;-67
2022/11/09 12:55:15;;;;;;;;;;;15.80;99.90;;;;;;1913517;75;20103;-68
2022/11/09 12:57:43;;;;;;;;;;;15.80;99.90;;;;;;1897581;74;20330;-67
2022/11/09 13:00:11;;;;;;;;;;;15.70;99.90;;;;;;1897830;74;20199;-68
2022/11/09 13:02:40;;;;;;;;;;;16.00;99.90;;;;;;1913089;74;20342;-67
2022/11/09 13:05:07;;;;;;;;;;;15.90;99.90;;;;;;1913535;75;20114;-67
2022/11/09 13:07:48;;;;;;;;;;;16.10;99.90;;;;;;1909268;74;20126;-66
2022/11/09 13:10:24;;;;;;;;;;;16.20;99.90;;;;;;1894339;75;20237;-67
2022/11/09 13:12:50;;;;;;;;;;;16.20;99.90;;;;;;1911493;74;20333;-69
2022/11/09 13:15:19;;;;;;;;;;;16.30;99.90;;;;;;1888955;75;20150;-67
2022/11/09 13:18:02;;;;;;;;;;;16.20;99.90;;;;;;1892353;74;20125;-68
2022/11/09 13:20:36;;;;;;;;;;;16.30;99.90;;;;;;1909830;73;20114;-70
2022/11/09 13:23:03;;;;;;;;;;;16.20;99.90;;;;;;1888751;76;20141;-70
2022/11/09 13:25:46;;;;;;;;;;;16.10;99.90;;;;;;1899852;74;20337;-77
2022/11/09 13:28:23;;;;;;;;;;;16.00;99.90;;;;;;1929427;74;20142;-69
2022/11/09 13:30:49;;;;;;;;;;;15.80;99.90;;;;;;1926449;74;20171;-69
2022/11/09 13:33:18;;;;;;;;;;;15.80;99.90;;;;;;1888415;74;20350;-71
2022/11/09 13:35:46;;;;;;;;;;;15.70;99.90;;;;;;1907167;74;20122;-72
2022/11/09 13:38:16;;;;;;;;;;;15.60;99.90;;;;;;1928396;74;20183;-81
2022/11/09 13:40:45;;;;;;;;;;;15.60;99.90;;;;;;1895444;74;20114;-72
2022/11/09 13:43:14;;;;;;;;;;;15.60;99.90;;;;;;1890016;75;20154;-71
2022/11/09 13:45:45;;;;;;;;;;;15.50;99.90;;;;;;1892703;75;20160;-71
2022/11/09 13:48:22;;;;;;;;;;;15.50;99.90;;;;;;1911718;75;20206;-71
2022/11/09 13:50:52;;;;;;;;;;;15.50;99.90;;;;;;1863270;76;20124;-72
2022/11/09 13:53:33;;;;;;;;;;;15.40;99.90;;;;;;1912424;73;20172;-69
2022/11/09 13:55:59;;;;;;;;;;;15.40;99.90;;;;;;1918932;74;20376;-76
2022/11/09 13:58:28;;;;;;;;;;;15.10;99.90;;;;;;1880937;75;20172;-74
2022/11/09 14:00:54;;;;;;;;;;;15.20;99.90;;;;;;1898124;74;20388;-75
2022/11/09 14:03:25;;;;;;;;;;;15.20;99.90;;;;;;1913237;75;20116;-78
2022/11/09 14:05:52;;;;;;;;;;;15.00;99.90;;;;;;1897820;74;20122;-75
2022/11/09 14:08:23;;;;;;;;;;;15.00;99.90;;;;;;1905490;75;20192;-79
2022/11/09 14:10:52;;;;;;;;;;;15.10;99.90;;;;;;1910460;74;20114;-78
2022/11/09 14:13:26;;;;;;;;;;;15.10;99.90;;;;;;1904767;74;20121;-76
2022/11/09 14:15:54;;;;;;;;;;;15.00;99.90;;;;;;1889994;75;20371;-75
2022/11/09 14:18:26;;;;;;;;;;;14.90;99.90;;;;;;1904167;73;20118;-75
2022/11/09 14:20:57;;;;;;;;;;;14.90;99.90;;;;;;1894721;75;20107;-73
2022/11/09 14:23:24;;;;;;;;;;;14.80;99.90;;;;;;1926302;74;20161;-74
2022/11/09 14:25:50;;;;;;;;;;;14.70;99.90;;;;;;1903821;74;20267;-73
2022/11/09 14:28:25;;;;;;;;;;;14.70;99.90;;;;;;1905397;74;20175;-73
2022/11/09 14:30:52;;;;;;;;;;;14.60;99.90;;;;;;1906760;75;20130;-73